Погода Гумаитана неделю

Амасонас, Бразилия

15 - 21 июля
  • 15июля
    Сегодня
    +21°
    +32°
    Облачно с прояснениями
    ВремяПогодаТемператураВлажностьДавлениеВетер, м/сВероятность осадков
    02:00Небольшая облачность+22°C87 %756 мм1.6 м/с5 %
    05:00Небольшая облачность+22°C84 %756 мм2.9 м/с5 %
    08:00Ясно и безоблачно+23°C70 %758 мм2.9 м/с5 %
    11:00Небольшая облачность+28°C51 %758 мм2.9 м/с5 %
    14:00Облачно с прояснениями+31°C43 %756 мм3.1 м/с5 %
    17:00Практически безоблачно+30°C51 %755 мм2.0 м/с5 %
    20:00Ясно и безоблачно+26°C63 %755 мм2.9 м/с5 %
    23:00Ясно и безоблачно+24°C69 %757 мм1.9 м/с5 %
  • 16июля
    Вторник
    +21°
    +33°
    Ясно и безоблачно
    ВремяПогодаТемператураВлажностьДавлениеВетер, м/сВероятность осадков
    02:00Ясно и безоблачно+24°C74 %755 мм2.7 м/с5 %
    05:00Ясно и безоблачно+22°C77 %756 мм3.1 м/с5 %
    08:00Ясно и безоблачно+23°C72 %757 мм2.4 м/с5 %
    11:00Ясно и безоблачно+29°C49 %757 мм2.5 м/с5 %
    14:00Ясно и безоблачно+32°C39 %755 мм2.2 м/с5 %
    17:00Ясно и безоблачно+31°C47 %754 мм1.8 м/с5 %
    20:00Ясно и безоблачно+26°C61 %755 мм2.4 м/с5 %
    23:00Ясно и безоблачно+25°C67 %757 мм2.0 м/с5 %
  • 17июля
    Среда
    +22°
    +34°
    Ясно и безоблачно
    ВремяПогодаТемператураВлажностьДавлениеВетер, м/сВероятность осадков
    02:00Ясно и безоблачно+23°C73 %756 мм1.8 м/с5 %
    05:00Ясно и безоблачно+23°C78 %756 мм1.7 м/с5 %
    08:00Практически безоблачно+23°C74 %757 мм2.0 м/с5 %
    11:00Ясно и безоблачно+30°C48 %757 мм2.5 м/с5 %
    14:00Ясно и безоблачно+33°C33 %755 мм2.9 м/с5 %
    17:00Ясно и безоблачно+32°C45 %754 мм1.7 м/с5 %
    20:00Ясно и безоблачно+27°C56 %755 мм2.5 м/с5 %
    23:00Ясно и безоблачно+25°C63 %755 мм2.1 м/с5 %
  • 18июля
    Четверг
    +21°
    +34°
    Ясно и безоблачно
    ВремяПогодаТемператураВлажностьДавлениеВетер, м/сВероятность осадков
    02:00Ясно и безоблачно+23°C70 %754 мм2.1 м/с5 %
    05:00Ясно и безоблачно+23°C75 %755 мм1.4 м/с5 %
    08:00Ясно и безоблачно+24°C74 %756 мм2.0 м/с5 %
    11:00Ясно и безоблачно+31°C43 %756 мм2.1 м/с5 %
    14:00Ясно и безоблачно+34°C28 %754 мм2.0 м/с5 %
    17:00Ясно и безоблачно+33°C39 %753 мм1.5 м/с5 %
    20:00Ясно и безоблачно+27°C56 %754 мм2.1 м/с5 %
    23:00Ясно и безоблачно+25°C69 %755 мм2.4 м/с5 %
Мы используем cookies
Соглашаюсь